createdAt,value
2019-02-24T00:02:22.440Z,26.10
2019-02-24T00:04:50.981Z,26.50
2019-02-24T00:07:19.561Z,26.60
2019-02-24T00:09:48.146Z,26.90
2019-02-24T00:12:17.165Z,26.80
2019-02-24T00:14:45.646Z,25.70
2019-02-24T00:17:14.105Z,26.20
2019-02-24T00:19:42.608Z,25.70
2019-02-24T00:22:11.087Z,26.10
2019-02-24T00:24:39.593Z,26.20
2019-02-24T00:27:08.154Z,25.70
2019-02-24T00:29:36.644Z,25.50
2019-02-24T00:32:05.240Z,25.00
2019-02-24T00:34:33.930Z,24.70
2019-02-24T00:37:21.924Z,24.30
2019-02-24T00:39:50.386Z,24.20
2019-02-24T00:42:19.113Z,24.60
2019-02-24T00:44:47.600Z,24.70
2019-02-24T00:47:16.110Z,24.70
2019-02-24T00:49:45.524Z,24.30
2019-02-24T00:52:14.863Z,24.40
2019-02-24T00:54:43.452Z,24.40
2019-02-24T00:57:12.626Z,24.70
2019-02-24T00:59:41.227Z,25.20
2019-02-24T01:02:09.879Z,24.70
2019-02-24T01:04:38.523Z,25.00
2019-02-24T01:07:12.190Z,25.80
2019-02-24T01:09:40.846Z,26.00
2019-02-24T01:12:09.420Z,26.90
2019-02-24T01:14:37.881Z,27.30
2019-02-24T01:17:06.392Z,27.70
2019-02-24T01:19:34.970Z,27.60
2019-02-24T01:22:03.425Z,27.50
2019-02-24T01:24:32.009Z,27.30
2019-02-24T01:27:00.493Z,27.40
2019-02-24T01:29:29.077Z,27.40
2019-02-24T01:31:57.669Z,27.90
2019-02-24T01:34:26.240Z,28.30
2019-02-24T01:36:54.850Z,28.10
2019-02-24T01:39:23.489Z,27.70
2019-02-24T01:41:52.177Z,27.70
2019-02-24T01:44:20.770Z,28.30
2019-02-24T01:46:49.334Z,28.20
2019-02-24T01:49:18.001Z,28.60
2019-02-24T01:51:46.528Z,28.80
2019-02-24T01:54:15.016Z,29.00
2019-02-24T01:56:43.602Z,28.90
2019-02-24T01:59:12.305Z,29.10
2019-02-24T02:01:40.868Z,29.00
2019-02-24T02:04:09.493Z,29.00
2019-02-24T02:06:38.140Z,29.30
2019-02-24T02:09:06.622Z,29.30
2019-02-24T02:11:35.093Z,29.30
2019-02-24T02:14:03.874Z,29.30
2019-02-24T02:16:32.405Z,28.90
2019-02-24T02:19:01.028Z,28.90
2019-02-24T02:21:29.547Z,28.60
2019-02-24T02:23:58.125Z,28.50
2019-02-24T02:26:26.632Z,28.90
2019-02-24T02:28:55.132Z,28.80
2019-02-24T02:31:23.677Z,29.20
2019-02-24T02:33:52.273Z,29.40
2019-02-24T02:36:20.804Z,29.40
2019-02-24T02:38:49.384Z,29.60
2019-02-24T02:41:18.073Z,30.00
2019-02-24T02:43:46.601Z,30.00
2019-02-24T02:46:15.187Z,30.90
2019-02-24T02:48:43.766Z,31.70
2019-02-24T02:51:12.308Z,32.30
2019-02-24T02:53:40.899Z,32.70
2019-02-24T02:56:09.551Z,33.40
2019-02-24T02:58:38.146Z,34.00
2019-02-24T03:01:06.814Z,34.10
2019-02-24T03:03:35.382Z,32.80
2019-02-24T03:06:11.493Z,31.60
2019-02-24T03:08:47.711Z,31.20
2019-02-24T03:11:17.131Z,30.60
2019-02-24T03:13:45.790Z,30.20
2019-02-24T03:16:16.074Z,29.80
2019-02-24T03:18:44.634Z,29.50
2019-02-24T03:21:13.371Z,29.60
2019-02-24T03:23:41.990Z,29.50
2019-02-24T03:26:10.603Z,29.90
2019-02-24T03:28:39.185Z,29.20
2019-02-24T03:31:07.767Z,29.10
2019-02-24T03:33:36.349Z,28.70
2019-02-24T03:36:05.179Z,28.90
2019-02-24T03:38:33.884Z,28.80
2019-02-24T03:41:02.658Z,29.10
2019-02-24T03:43:31.294Z,29.30
2019-02-24T03:45:59.947Z,29.60
2019-02-24T03:48:28.489Z,29.50
2019-02-24T03:50:57.225Z,29.60
2019-02-24T03:53:26.447Z,29.80
2019-02-24T03:55:55.163Z,29.90
2019-02-24T03:58:23.716Z,30.00
2019-02-24T04:00:52.402Z,30.30
2019-02-24T04:03:21.121Z,30.00
2019-02-24T04:05:49.678Z,30.40
2019-02-24T04:08:18.462Z,30.60
2019-02-24T04:10:47.061Z,31.00
2019-02-24T04:13:15.628Z,31.10
2019-02-24T04:15:44.367Z,31.70
2019-02-24T04:18:13.025Z,32.00
2019-02-24T04:20:41.632Z,32.00
2019-02-24T04:23:10.157Z,32.00
2019-02-24T04:25:38.746Z,33.30
2019-02-24T04:28:07.393Z,34.10
2019-02-24T04:30:36.006Z,34.80
2019-02-24T04:33:06.796Z,35.30
2019-02-24T04:35:35.090Z,36.10
2019-02-24T04:38:03.647Z,36.40
2019-02-24T04:40:32.209Z,36.40
2019-02-24T04:43:00.969Z,36.60
2019-02-24T04:45:29.804Z,36.60
2019-02-24T04:47:58.386Z,35.60
2019-02-24T04:50:26.977Z,34.60
2019-02-24T04:52:55.621Z,34.10
2019-02-24T04:55:24.206Z,33.70
2019-02-24T04:57:52.860Z,33.40
2019-02-24T05:00:21.430Z,33.50
2019-02-24T05:02:50.162Z,34.10
2019-02-24T05:05:18.767Z,34.30
2019-02-24T05:07:47.476Z,34.10
2019-02-24T05:10:16.367Z,34.70
2019-02-24T05:12:44.986Z,34.90
2019-02-24T05:15:13.654Z,34.60
2019-02-24T05:17:42.384Z,35.00
2019-02-24T05:20:11.054Z,34.80
2019-02-24T05:22:39.609Z,35.70
2019-02-24T05:25:08.496Z,36.10
2019-02-24T05:27:37.094Z,36.50
2019-02-24T05:30:06.240Z,37.00
2019-02-24T05:32:34.806Z,37.20
2019-02-24T05:35:03.566Z,37.40
2019-02-24T05:37:32.117Z,37.70
2019-02-24T05:40:00.696Z,38.30
2019-02-24T05:42:29.238Z,39.00
2019-02-24T05:44:57.823Z,38.70
2019-02-24T05:47:26.411Z,38.90
2019-02-24T05:49:55.128Z,39.30
2019-02-24T05:52:23.677Z,39.80
2019-02-24T05:54:52.229Z,40.00
2019-02-24T05:57:20.811Z,40.20
2019-02-24T05:59:55.376Z,40.10
2019-02-24T06:02:19.838Z,40.00
2019-02-24T06:04:48.404Z,40.20
2019-02-24T06:07:17.038Z,40.80
2019-02-24T06:09:45.610Z,40.30
2019-02-24T06:12:14.226Z,40.10
2019-02-24T06:14:42.946Z,40.00
2019-02-24T06:17:11.500Z,39.90
2019-02-24T06:19:40.101Z,40.20
2019-02-24T06:22:08.634Z,39.90
2019-02-24T06:24:37.421Z,39.70
2019-02-24T06:27:06.073Z,39.30
2019-02-24T06:29:34.914Z,39.10
2019-02-24T06:32:03.452Z,39.10
2019-02-24T06:34:32.102Z,38.90
2019-02-24T06:37:00.661Z,38.40
2019-02-24T06:39:29.369Z,37.80
2019-02-24T06:41:57.918Z,37.40
2019-02-24T06:44:26.413Z,36.90
2019-02-24T06:46:55.175Z,36.90
2019-02-24T06:49:23.989Z,36.70
2019-02-24T06:51:52.600Z,37.00
2019-02-24T06:54:21.198Z,37.30
2019-02-24T06:56:49.739Z,37.40
2019-02-24T06:59:18.278Z,37.50
2019-02-24T07:01:46.949Z,37.40
2019-02-24T07:04:15.510Z,37.50
2019-02-24T07:06:44.078Z,37.50
2019-02-24T07:09:12.921Z,37.40
2019-02-24T07:11:41.463Z,37.40
2019-02-24T07:14:10.078Z,37.70
2019-02-24T07:16:38.650Z,37.70
2019-02-24T07:19:07.198Z,37.50
2019-02-24T07:21:35.891Z,37.70
2019-02-24T07:24:04.469Z,37.80
2019-02-24T07:26:33.018Z,38.00
2019-02-24T07:29:01.606Z,38.10
2019-02-24T07:31:30.270Z,37.90
2019-02-24T07:33:59.039Z,37.90
2019-02-24T07:36:27.727Z,37.50
2019-02-24T07:38:56.311Z,37.30
2019-02-24T07:41:24.896Z,37.30
2019-02-24T07:43:53.551Z,36.90
2019-02-24T07:46:22.219Z,36.90
2019-02-24T07:48:50.819Z,36.30
2019-02-24T07:51:19.441Z,36.10
2019-02-24T07:53:48.040Z,35.90
2019-02-24T07:56:16.730Z,35.70
2019-02-24T07:58:45.311Z,35.60
2019-02-24T08:01:13.964Z,35.50
2019-02-24T08:03:42.557Z,35.40
2019-02-24T08:06:11.582Z,35.20
2019-02-24T08:08:40.194Z,34.80
2019-02-24T08:11:08.851Z,34.60
2019-02-24T08:13:37.430Z,34.60
2019-02-24T08:16:06.095Z,34.20
2019-02-24T08:18:34.701Z,34.10
2019-02-24T08:21:03.319Z,34.10
2019-02-24T08:23:32.111Z,34.10
2019-02-24T08:26:00.656Z,33.90
2019-02-24T08:28:29.254Z,34.20
2019-02-24T08:30:57.884Z,34.30
2019-02-24T08:33:26.790Z,34.00
2019-02-24T08:35:55.355Z,33.90
2019-02-24T08:38:23.978Z,33.70
2019-02-24T08:40:52.606Z,34.00
2019-02-24T08:43:21.191Z,34.10
2019-02-24T08:45:49.843Z,33.90
2019-02-24T08:48:19.225Z,34.00
2019-02-24T08:50:48.199Z,34.30
2019-02-24T08:53:16.950Z,33.30
2019-02-24T08:55:45.728Z,32.90
2019-02-24T08:58:14.302Z,33.20
2019-02-24T09:00:50.703Z,32.70
2019-02-24T09:03:13.130Z,32.30
2019-02-24T09:05:41.945Z,32.20
2019-02-24T09:08:10.503Z,31.60
2019-02-24T09:10:39.137Z,31.70
2019-02-24T09:13:07.813Z,31.10
2019-02-24T09:15:36.425Z,30.60
2019-02-24T09:18:04.997Z,29.40
2019-02-24T09:20:33.629Z,29.30
2019-02-24T09:23:02.392Z,29.30
2019-02-24T09:25:31.020Z,29.10
2019-02-24T09:27:59.607Z,28.20
2019-02-24T09:30:28.398Z,27.30
2019-02-24T09:32:57.082Z,28.30
2019-02-24T09:35:25.788Z,28.10
2019-02-24T09:37:54.436Z,28.20
2019-02-24T09:40:23.219Z,28.10
2019-02-24T09:42:52.151Z,27.50
2019-02-24T09:45:20.976Z,26.90
2019-02-24T09:47:57.189Z,26.50
2019-02-24T09:50:25.793Z,26.90
2019-02-24T09:52:57.357Z,26.90
2019-02-24T09:55:26.001Z,26.40
2019-02-24T09:57:54.672Z,25.90
2019-02-24T10:00:23.245Z,25.90
2019-02-24T10:02:51.833Z,25.90
2019-02-24T10:05:20.526Z,26.40
2019-02-24T10:07:49.062Z,26.20
2019-02-24T10:10:17.803Z,26.60
2019-02-24T10:12:46.397Z,26.50
2019-02-24T10:15:16.032Z,26.20
2019-02-24T10:17:44.730Z,27.00
2019-02-24T10:20:13.734Z,26.90
2019-02-24T10:22:42.696Z,26.70
2019-02-24T10:25:11.230Z,27.00
2019-02-24T10:27:39.825Z,26.90
2019-02-24T10:30:11.397Z,27.00
2019-02-24T10:32:40.146Z,27.00
2019-02-24T10:35:08.988Z,26.60
2019-02-24T10:37:38.811Z,27.00
2019-02-24T10:40:12.387Z,26.50
2019-02-24T10:42:41.360Z,26.80
2019-02-24T10:45:15.483Z,26.50
2019-02-24T10:47:44.151Z,27.00
2019-02-24T10:50:14.343Z,26.80
2019-02-24T10:52:43.076Z,26.60
2019-02-24T10:55:12.074Z,27.50
2019-02-24T10:57:40.785Z,26.30
2019-02-24T11:00:17.707Z,26.20
2019-02-24T11:02:46.398Z,24.40
2019-02-24T11:05:16.331Z,24.20
2019-02-24T11:07:44.939Z,24.90
2019-02-24T11:10:13.674Z,25.00
2019-02-24T11:12:42.288Z,25.50
2019-02-24T11:15:12.990Z,24.60
2019-02-24T11:17:42.053Z,25.40
2019-02-24T11:20:12.867Z,25.60
2019-02-24T11:22:41.429Z,25.10
2019-02-24T11:25:11.713Z,25.20
2019-02-24T11:27:40.250Z,24.60
2019-02-24T11:30:13.284Z,25.10
2019-02-24T11:32:42.026Z,25.30
2019-02-24T11:35:11.960Z,26.00
2019-02-24T11:37:40.717Z,26.60
2019-02-24T11:40:14.524Z,26.50
2019-02-24T11:42:43.125Z,25.90
2019-02-24T11:45:11.947Z,26.10
2019-02-24T11:47:40.590Z,26.40
2019-02-24T11:50:11.079Z,26.20
2019-02-24T11:52:39.771Z,26.10
2019-02-24T11:55:09.998Z,26.10
2019-02-24T11:57:39.074Z,26.70
2019-02-24T12:00:13.205Z,27.00
2019-02-24T12:02:42.108Z,26.50
2019-02-24T12:05:11.402Z,25.20
2019-02-24T12:07:40.482Z,24.70
2019-02-24T12:10:13.006Z,24.50
2019-02-24T12:12:41.708Z,24.90
2019-02-24T12:15:14.518Z,25.10
2019-02-24T12:17:43.222Z,25.20
2019-02-24T12:20:13.159Z,25.40
2019-02-24T12:22:41.829Z,25.50
2019-02-24T12:25:11.784Z,25.20
2019-02-24T12:27:41.499Z,24.40
2019-02-24T12:30:12.206Z,24.60
2019-02-24T12:32:40.832Z,24.90
2019-02-24T12:35:10.484Z,24.70
2019-02-24T12:37:39.164Z,25.20
2019-02-24T12:40:10.085Z,24.90
2019-02-24T12:42:38.625Z,25.70
2019-02-24T12:45:09.671Z,25.40
2019-02-24T12:47:38.473Z,25.90
2019-02-24T12:50:12.465Z,26.20
2019-02-24T12:52:41.114Z,25.60
2019-02-24T12:55:10.242Z,26.10
2019-02-24T12:57:39.081Z,26.30
2019-02-24T13:00:15.349Z,27.10
2019-02-24T13:02:43.978Z,27.30
2019-02-24T13:05:13.118Z,27.20
2019-02-24T13:07:41.851Z,27.60
2019-02-24T13:10:16.183Z,27.90
2019-02-24T13:12:45.055Z,27.30
2019-02-24T13:15:14.155Z,27.60
2019-02-24T13:17:43.033Z,27.20
2019-02-24T13:20:12.170Z,27.20
2019-02-24T13:22:41.158Z,26.70
2019-02-24T13:25:11.875Z,27.30
2019-02-24T13:27:40.579Z,27.20
2019-02-24T13:30:14.466Z,27.30
2019-02-24T13:32:43.119Z,27.40
2019-02-24T13:35:11.655Z,27.70
2019-02-24T13:37:40.206Z,27.80
2019-02-24T13:40:14.115Z,26.20
2019-02-24T13:42:42.746Z,27.00
2019-02-24T13:45:16.681Z,26.50
2019-02-24T13:47:45.376Z,26.80
2019-02-24T13:50:15.118Z,26.80
2019-02-24T13:52:43.805Z,26.90
2019-02-24T13:55:14.267Z,27.10
2019-02-24T13:57:45.786Z,26.60
2019-02-24T14:00:17.073Z,26.00
2019-02-24T14:02:45.722Z,27.00
2019-02-24T14:05:14.316Z,27.00
2019-02-24T14:07:43.071Z,27.30
2019-02-24T14:10:15.548Z,27.00
2019-02-24T14:12:44.401Z,27.20
2019-02-24T14:15:14.620Z,26.90
2019-02-24T14:17:43.311Z,27.10
2019-02-24T14:20:14.678Z,27.00
2019-02-24T14:22:43.333Z,26.50
2019-02-24T14:25:14.237Z,25.90
2019-02-24T14:27:42.838Z,25.60
2019-02-24T14:30:16.098Z,25.90
2019-02-24T14:32:44.699Z,26.00
2019-02-24T14:35:15.879Z,25.60
2019-02-24T14:37:44.675Z,26.00
2019-02-24T14:40:13.508Z,26.00
2019-02-24T14:42:42.219Z,25.80
2019-02-24T14:45:14.029Z,26.40
2019-02-24T14:47:42.718Z,26.40
2019-02-24T14:50:11.840Z,25.80
2019-02-24T14:52:40.604Z,25.80
2019-02-24T14:55:11.845Z,26.40
2019-02-24T14:57:40.688Z,26.20
2019-02-24T15:00:12.898Z,27.00
2019-02-24T15:02:42.729Z,26.80
2019-02-24T15:05:13.347Z,27.20
2019-02-24T15:07:41.967Z,27.40
2019-02-24T15:10:15.935Z,28.20
2019-02-24T15:12:44.481Z,27.90
2019-02-24T15:15:21.715Z,27.70
2019-02-24T15:17:50.305Z,27.70
2019-02-24T15:20:21.093Z,27.70
2019-02-24T15:22:50.045Z,27.30
2019-02-24T15:25:19.235Z,27.90
2019-02-24T15:27:47.802Z,27.20
2019-02-24T15:30:28.427Z,27.50
2019-02-24T15:32:58.607Z,26.40
2019-02-24T15:35:27.170Z,27.20
2019-02-24T15:37:55.762Z,27.50
2019-02-24T15:40:24.318Z,27.20
2019-02-24T15:42:53.183Z,27.00
2019-02-24T15:45:21.927Z,27.70
2019-02-24T15:47:50.583Z,27.20
2019-02-24T15:50:19.377Z,26.80
2019-02-24T15:52:48.003Z,27.10
2019-02-24T15:55:18.147Z,27.10
2019-02-24T15:57:46.769Z,26.10
2019-02-24T16:00:17.758Z,26.80
2019-02-24T16:02:46.391Z,26.40
2019-02-24T16:05:15.071Z,27.20
2019-02-24T16:07:43.662Z,27.70
2019-02-24T16:10:17.315Z,27.80
2019-02-24T16:12:46.071Z,27.70
2019-02-24T16:15:23.338Z,28.40
2019-02-24T16:17:52.559Z,27.80
2019-02-24T16:20:35.967Z,28.00
2019-02-24T16:23:04.902Z,28.00
2019-02-24T16:25:33.536Z,27.60
2019-02-24T16:28:02.212Z,28.10
2019-02-24T16:30:30.767Z,28.30
2019-02-24T16:32:59.400Z,28.30
2019-02-24T16:35:28.119Z,28.50
2019-02-24T16:37:56.749Z,28.10
2019-02-24T16:40:27.432Z,28.50
2019-02-24T16:42:56.028Z,28.30
2019-02-24T16:45:24.600Z,28.60
2019-02-24T16:47:53.284Z,28.60
2019-02-24T16:50:23.672Z,28.90
2019-02-24T16:52:52.286Z,28.90
2019-02-24T16:55:21.097Z,28.40
2019-02-24T16:57:49.641Z,27.90
2019-02-24T17:00:20.681Z,27.90
2019-02-24T17:02:49.455Z,28.10
2019-02-24T17:05:18.230Z,28.60
2019-02-24T17:07:49.124Z,28.40
2019-02-24T17:10:26.182Z,28.60
2019-02-24T17:12:54.791Z,28.90
2019-02-24T17:15:23.540Z,29.10
2019-02-24T17:17:52.289Z,28.90
2019-02-24T17:20:22.618Z,28.70
2019-02-24T17:22:51.661Z,28.80
2019-02-24T17:25:22.020Z,28.90
2019-02-24T17:27:50.721Z,28.90
2019-02-24T17:30:19.423Z,28.80
2019-02-24T17:32:49.860Z,28.90
2019-02-24T17:35:18.478Z,29.00
2019-02-24T17:37:48.875Z,29.00
2019-02-24T17:40:20.127Z,29.20
2019-02-24T17:42:48.693Z,29.50
2019-02-24T17:45:17.417Z,29.50
2019-02-24T17:47:46.022Z,29.60
2019-02-24T17:50:18.203Z,29.80
2019-02-24T17:52:46.854Z,30.00
2019-02-24T17:55:16.766Z,30.30
2019-02-24T17:57:45.789Z,30.70
2019-02-24T18:00:27.593Z,31.00
2019-02-24T18:02:56.370Z,31.70
2019-02-24T18:05:30.611Z,32.60
2019-02-24T18:07:59.633Z,33.20
2019-02-24T18:10:28.587Z,33.60
2019-02-24T18:12:57.289Z,33.90
2019-02-24T18:15:25.844Z,33.90
2019-02-24T18:17:54.426Z,33.90
2019-02-24T18:20:23.783Z,34.30
2019-02-24T18:22:52.938Z,34.90
2019-02-24T18:25:21.595Z,35.30
2019-02-24T18:27:50.414Z,35.50
2019-02-24T18:30:24.393Z,36.00
2019-02-24T18:32:53.002Z,36.20
2019-02-24T18:35:25.595Z,36.30
2019-02-24T18:37:54.280Z,36.50
2019-02-24T18:40:22.892Z,36.60
2019-02-24T18:42:59.624Z,36.60
2019-02-24T18:45:23.082Z,36.90
2019-02-24T18:47:51.773Z,37.00
2019-02-24T18:50:20.429Z,37.20
2019-02-24T18:52:49.034Z,37.20
2019-02-24T18:55:17.802Z,37.20
2019-02-24T18:57:46.412Z,37.40
2019-02-24T19:00:20.160Z,37.30
2019-02-24T19:02:48.933Z,37.30
2019-02-24T19:05:18.949Z,37.30
2019-02-24T19:07:47.631Z,37.50
2019-02-24T19:10:22.010Z,38.10
2019-02-24T19:12:50.706Z,38.30
2019-02-24T19:15:23.884Z,38.10
2019-02-24T19:17:52.585Z,38.80
2019-02-24T19:20:22.541Z,37.70
2019-02-24T19:22:51.422Z,37.60
2019-02-24T19:25:20.162Z,37.40
2019-02-24T19:27:49.053Z,37.50
2019-02-24T19:30:19.734Z,37.70
2019-02-24T19:32:48.406Z,37.80
2019-02-24T19:35:18.354Z,38.00
2019-02-24T19:37:46.908Z,39.20
2019-02-24T19:40:20.731Z,39.50
2019-02-24T19:42:49.359Z,39.70
2019-02-24T19:45:20.464Z,39.80
2019-02-24T19:47:50.638Z,39.80
2019-02-24T19:50:19.452Z,39.90
2019-02-24T19:52:48.262Z,40.00
2019-02-24T19:55:18.002Z,40.00
2019-02-24T19:57:46.687Z,40.20
2019-02-24T20:00:18.884Z,40.40
2019-02-24T20:02:47.883Z,40.60
2019-02-24T20:05:16.774Z,40.60
2019-02-24T20:07:45.760Z,40.80
2019-02-24T20:10:25.776Z,40.80
2019-02-24T20:12:54.418Z,40.90
2019-02-24T20:15:23.086Z,41.00
2019-02-24T20:17:51.918Z,41.10
2019-02-24T20:20:20.611Z,41.20
2019-02-24T20:23:08.527Z,41.30
2019-02-24T20:25:44.363Z,41.10
2019-02-24T20:28:12.922Z,41.70
2019-02-24T20:30:41.510Z,41.90
2019-02-24T20:33:10.055Z,42.20
2019-02-24T20:35:38.749Z,42.10
2019-02-24T20:38:07.442Z,42.00
2019-02-24T20:40:36.013Z,41.40
2019-02-24T20:43:05.351Z,41.30
2019-02-24T20:45:34.007Z,41.20
2019-02-24T20:48:02.799Z,41.20
2019-02-24T20:50:33.597Z,41.00
2019-02-24T20:53:02.495Z,41.20
2019-02-24T20:55:31.267Z,41.40
2019-02-24T20:57:59.944Z,41.40
2019-02-24T21:00:44.740Z,41.40
2019-02-24T21:03:16.557Z,41.50
2019-02-24T21:05:45.208Z,41.60
2019-02-24T21:08:13.875Z,41.70
2019-02-24T21:10:48.591Z,41.80
2019-02-24T21:13:17.213Z,42.50
2019-02-24T21:15:45.840Z,42.70
2019-02-24T21:18:14.683Z,42.00
2019-02-24T21:20:43.357Z,42.00
2019-02-24T21:23:11.980Z,40.80
2019-02-24T21:25:40.763Z,40.40
2019-02-24T21:28:09.320Z,40.40
2019-02-24T21:30:38.062Z,40.50
2019-02-24T21:33:06.773Z,40.60
2019-02-24T21:35:35.380Z,40.60
2019-02-24T21:38:04.069Z,40.20
2019-02-24T21:40:32.761Z,40.00
2019-02-24T21:43:01.422Z,39.50
2019-02-24T21:45:30.006Z,39.20
2019-02-24T21:47:58.638Z,39.20
2019-02-24T21:50:27.495Z,38.90
2019-02-24T21:52:56.417Z,38.90
2019-02-24T21:55:24.969Z,39.50
2019-02-24T21:57:53.568Z,41.20
2019-02-24T22:00:26.642Z,41.70
2019-02-24T22:02:55.266Z,42.00
2019-02-24T22:05:24.181Z,42.20
2019-02-24T22:07:52.800Z,42.20
2019-02-24T22:10:21.536Z,42.20
2019-02-24T22:12:50.142Z,41.90
2019-02-24T22:15:24.590Z,42.10
2019-02-24T22:17:53.717Z,41.70
2019-02-24T22:20:22.437Z,41.40
2019-02-24T22:22:51.058Z,41.40
2019-02-24T22:25:19.715Z,41.50
2019-02-24T22:27:48.257Z,41.40
2019-02-24T22:30:18.801Z,41.70
2019-02-24T22:32:47.474Z,41.70
2019-02-24T22:35:16.108Z,41.90
2019-02-24T22:37:45.139Z,43.20
2019-02-24T22:40:16.738Z,44.00
2019-02-24T22:42:46.110Z,43.60
2019-02-24T22:45:19.594Z,44.00
2019-02-24T22:47:48.350Z,43.80
2019-02-24T22:50:17.570Z,44.00
2019-02-24T22:52:47.120Z,43.30
2019-02-24T22:55:19.219Z,42.90
2019-02-24T22:57:47.934Z,42.80
2019-02-24T23:00:52.420Z,43.10
2019-02-24T23:03:23.171Z,43.00
2019-02-24T23:05:51.857Z,43.60
2019-02-24T23:08:20.951Z,44.00
2019-02-24T23:10:49.589Z,44.40
2019-02-24T23:13:18.254Z,44.50
2019-02-24T23:15:46.906Z,44.60
2019-02-24T23:18:15.662Z,44.60
2019-02-24T23:20:44.291Z,44.50
2019-02-24T23:23:13.126Z,44.50
2019-02-24T23:25:41.842Z,44.60
2019-02-24T23:28:10.380Z,44.50
2019-02-24T23:30:39.095Z,44.50
2019-02-24T23:33:07.651Z,44.40
2019-02-24T23:35:36.347Z,44.50
2019-02-24T23:38:05.346Z,44.40
2019-02-24T23:40:33.990Z,44.50
2019-02-24T23:43:02.802Z,44.50
2019-02-24T23:45:31.623Z,44.40
2019-02-24T23:48:00.207Z,44.20
2019-02-24T23:50:28.792Z,44.00
2019-02-24T23:52:57.557Z,44.10
2019-02-24T23:55:26.211Z,44.00
2019-02-24T23:57:54.750Z,43.90
